Terminal Aerodrome Forecast
Issued by NWS Cleveland, OH

Home | Current Version | Previous Version | Text Only | Print | Product List | Glossary Off
Versions: 1 2 3 4 5 6 7 8 9 10 11 12

000
FTUS41 KCLE 161100
TAFMFD
TAF
KMFD 161120Z 1612/1712 21003KT P6SM SKC
     FM161600 12010KT P6SM SCT250
     FM170200 10008KT P6SM BKN250
     FM171000 16012KT P6SM SCT250=

USA.gov is the U.S. government's official web portal to all federal, state and local government web resources and services.